createdAt,value
2023-03-08T00:01:33.468Z,95219.41
2023-03-08T00:04:02.329Z,95215.91
2023-03-08T00:06:30.596Z,95222.97
2023-03-08T00:09:02.143Z,95227.75
2023-03-08T00:11:30.984Z,95227.19
2023-03-08T00:13:59.432Z,95233.06
2023-03-08T00:16:27.487Z,95226.25
2023-03-08T00:18:55.541Z,95229.13
2023-03-08T00:21:23.688Z,95225.81
2023-03-08T00:23:53.909Z,95231.38
2023-03-08T00:26:24.783Z,95236.34
2023-03-08T00:28:53.759Z,95236.72
2023-03-08T00:31:22.032Z,95244.00
2023-03-08T00:33:54.679Z,95243.56
2023-03-08T00:36:23.233Z,95255.06
2023-03-08T00:38:52.478Z,95256.16
2023-03-08T00:41:20.929Z,95258.91
2023-03-08T00:43:51.198Z,95249.69
2023-03-08T00:46:19.426Z,95239.66
2023-03-08T00:48:47.804Z,95233.34
2023-03-08T00:51:18.661Z,95227.97
2023-03-08T00:53:48.721Z,95211.53
2023-03-08T00:56:16.894Z,95208.50
2023-03-08T00:58:45.238Z,95214.91
2023-03-08T01:01:17.171Z,95216.00
2023-03-08T01:03:47.394Z,95217.72
2023-03-08T01:06:16.772Z,95212.22
2023-03-08T01:08:45.578Z,95204.09
2023-03-08T01:11:19.805Z,95204.28
2023-03-08T01:13:48.865Z,95201.03
2023-03-08T01:16:21.301Z,95201.16
2023-03-08T01:18:50.098Z,95193.47
2023-03-08T01:21:18.950Z,95177.06
2023-03-08T01:23:47.702Z,95167.06
2023-03-08T01:26:19.142Z,95163.66
2023-03-08T01:28:48.421Z,95161.97
2023-03-08T01:31:21.147Z,95166.09
2023-03-08T01:33:50.041Z,95162.09
2023-03-08T01:36:21.114Z,95157.78
2023-03-08T01:38:49.815Z,95148.00
2023-03-08T01:41:20.895Z,95144.38
2023-03-08T01:43:49.978Z,95139.78
2023-03-08T01:46:28.638Z,95133.66
2023-03-08T01:49:08.998Z,95127.00
2023-03-08T01:51:41.948Z,95124.13
2023-03-08T01:54:17.064Z,95125.28
2023-03-08T01:56:48.343Z,95118.75
2023-03-08T01:59:23.746Z,95124.38
2023-03-08T02:01:56.088Z,95122.81
2023-03-08T02:04:24.566Z,95125.00
2023-03-08T02:06:54.013Z,95123.69
2023-03-08T02:09:24.799Z,95130.34
2023-03-08T02:11:55.809Z,95138.88
2023-03-08T02:14:27.280Z,95128.00
2023-03-08T02:16:57.362Z,95127.56
2023-03-08T02:19:36.364Z,95126.38
2023-03-08T02:22:10.536Z,95113.25
2023-03-08T02:24:41.803Z,95096.06
2023-03-08T02:27:15.566Z,95098.03
2023-03-08T02:29:43.765Z,95105.56
2023-03-08T02:32:13.513Z,95103.59
2023-03-08T02:34:41.593Z,95109.34
2023-03-08T02:37:12.958Z,95090.44
2023-03-08T02:39:42.362Z,95094.09
2023-03-08T02:42:10.376Z,95084.25
2023-03-08T02:44:38.430Z,95077.94
2023-03-08T02:47:07.206Z,95079.88
2023-03-08T02:49:35.303Z,95086.91
2023-03-08T02:52:04.231Z,95079.81
2023-03-08T02:54:32.276Z,95076.56
2023-03-08T02:57:01.678Z,95068.31
2023-03-08T02:59:30.810Z,95073.81
2023-03-08T03:01:59.684Z,95060.56
2023-03-08T03:04:31.800Z,95058.38
2023-03-08T03:07:01.452Z,95051.28
2023-03-08T03:09:31.458Z,95044.22
2023-03-08T03:12:01.027Z,95038.84
2023-03-08T03:14:30.133Z,95032.47
2023-03-08T03:16:59.401Z,95027.41
2023-03-08T03:19:27.647Z,95013.72
2023-03-08T03:21:55.715Z,95016.44
2023-03-08T03:24:23.813Z,95017.25
2023-03-08T03:26:55.613Z,95009.56
2023-03-08T03:29:27.765Z,95012.75
2023-03-08T03:32:06.808Z,95001.88
2023-03-08T03:34:34.981Z,95008.97
2023-03-08T03:37:03.146Z,95005.59
2023-03-08T03:39:34.648Z,94990.13
2023-03-08T03:42:03.932Z,94980.94
2023-03-08T03:44:34.289Z,94974.81
2023-03-08T03:47:03.585Z,94974.03
2023-03-08T03:49:31.830Z,94974.25
2023-03-08T03:51:59.964Z,94976.50
2023-03-08T03:54:35.788Z,94979.03
2023-03-08T03:57:04.298Z,94985.47
2023-03-08T03:59:38.596Z,94989.84
2023-03-08T04:02:07.493Z,94980.72
2023-03-08T04:04:44.050Z,94975.03
2023-03-08T04:07:14.473Z,94974.56
2023-03-08T04:09:50.048Z,94973.44
2023-03-08T04:12:18.931Z,94960.97
2023-03-08T04:14:48.285Z,94958.69
2023-03-08T04:17:17.755Z,94963.91
2023-03-08T04:19:50.655Z,94961.41
2023-03-08T04:22:20.104Z,94971.84
2023-03-08T04:25:09.293Z,94970.84
2023-03-08T04:27:45.041Z,94965.47
2023-03-08T04:30:15.637Z,94973.19
2023-03-08T04:32:44.139Z,94968.53
2023-03-08T04:35:12.854Z,94952.88
2023-03-08T04:37:45.425Z,94942.41
2023-03-08T04:40:14.913Z,94944.25
2023-03-08T04:42:50.506Z,94930.09
2023-03-08T04:45:25.259Z,94921.44
2023-03-08T04:47:55.984Z,94911.69
2023-03-08T04:50:24.102Z,94907.25
2023-03-08T04:52:54.107Z,94911.22
2023-03-08T04:55:22.428Z,94907.63
2023-03-08T04:57:51.157Z,94905.31
2023-03-08T05:00:19.965Z,94903.03
2023-03-08T05:02:49.360Z,94896.03
2023-03-08T05:05:19.906Z,94889.91
2023-03-08T05:07:48.535Z,94898.75
2023-03-08T05:10:17.041Z,94899.47
2023-03-08T05:12:45.228Z,94899.19
2023-03-08T05:15:13.348Z,94897.41
2023-03-08T05:17:41.492Z,94892.50
2023-03-08T05:20:13.328Z,94893.88
2023-03-08T05:22:57.606Z,94865.69
2023-03-08T05:25:30.836Z,94877.25
2023-03-08T05:27:59.099Z,94869.22
2023-03-08T05:30:27.925Z,94873.81
2023-03-08T05:32:56.965Z,94861.09
2023-03-08T05:35:26.464Z,94849.13
2023-03-08T05:37:54.528Z,94854.69
2023-03-08T05:40:23.447Z,94844.81
2023-03-08T05:42:52.607Z,94849.47
2023-03-08T05:45:20.934Z,94846.97
2023-03-08T05:47:49.312Z,94861.63
2023-03-08T05:50:18.057Z,94852.56
2023-03-08T05:52:49.743Z,94851.66
2023-03-08T05:55:23.770Z,94851.78
2023-03-08T05:57:52.113Z,94854.50
2023-03-08T06:00:22.966Z,94855.53
2023-03-08T06:02:55.771Z,94847.81
2023-03-08T06:05:24.880Z,94852.81
2023-03-08T06:07:58.046Z,94849.19
2023-03-08T06:10:26.331Z,94849.75
2023-03-08T06:12:55.583Z,94839.09
2023-03-08T06:15:25.765Z,94847.06
2023-03-08T06:17:54.795Z,94837.97
2023-03-08T06:20:25.446Z,94841.59
2023-03-08T06:22:53.840Z,94823.88
2023-03-08T06:25:23.285Z,94822.19
2023-03-08T06:27:51.584Z,94819.47
2023-03-08T06:30:28.494Z,94813.69
2023-03-08T06:32:57.546Z,94809.28
2023-03-08T06:35:26.693Z,94802.34
2023-03-08T06:37:59.116Z,94795.63
2023-03-08T06:40:28.696Z,94802.59
2023-03-08T06:42:56.757Z,94800.75
2023-03-08T06:45:25.248Z,94799.72
2023-03-08T06:47:53.403Z,94802.25
2023-03-08T06:50:22.105Z,94795.63
2023-03-08T06:52:51.705Z,94797.34
2023-03-08T06:55:29.157Z,94788.03
2023-03-08T06:57:57.356Z,94790.53
2023-03-08T07:00:25.684Z,94788.94
2023-03-08T07:02:54.800Z,94795.44
2023-03-08T07:05:23.188Z,94792.47
2023-03-08T07:07:51.272Z,94781.56
2023-03-08T07:10:22.793Z,94777.13
2023-03-08T07:12:52.709Z,94776.09
2023-03-08T07:15:25.031Z,94773.25
2023-03-08T07:17:56.027Z,94767.13
2023-03-08T07:20:27.483Z,94762.25
2023-03-08T07:22:55.795Z,94755.19
2023-03-08T07:25:23.817Z,94743.50
2023-03-08T07:27:53.317Z,94754.28
2023-03-08T07:30:22.042Z,94754.38
2023-03-08T07:32:50.249Z,94742.00
2023-03-08T07:35:18.445Z,94734.72
2023-03-08T07:37:47.989Z,94736.06
2023-03-08T07:40:18.487Z,94734.28
2023-03-08T07:42:46.938Z,94736.22
2023-03-08T07:45:38.422Z,94725.75
2023-03-08T07:48:07.382Z,94716.88
2023-03-08T07:50:35.554Z,94715.63
2023-03-08T07:53:04.461Z,94715.16
2023-03-08T07:55:32.620Z,94710.84
2023-03-08T07:58:00.720Z,94690.81
2023-03-08T08:00:29.015Z,94682.44
2023-03-08T08:02:58.397Z,94680.81
2023-03-08T08:05:26.696Z,94677.97
2023-03-08T08:07:54.903Z,94675.34
2023-03-08T08:10:22.968Z,94675.91
2023-03-08T08:12:51.163Z,94669.84
2023-03-08T08:15:19.549Z,94673.75
2023-03-08T08:17:47.578Z,94663.19
2023-03-08T08:20:17.521Z,94654.81
2023-03-08T08:22:45.595Z,94641.38
2023-03-08T08:25:13.819Z,94630.31
2023-03-08T08:27:41.896Z,94627.63
2023-03-08T08:30:13.849Z,94632.94
2023-03-08T08:32:42.051Z,94619.78
2023-03-08T08:35:11.399Z,94613.88
2023-03-08T08:37:40.776Z,94612.41
2023-03-08T08:40:12.193Z,94608.97
2023-03-08T08:42:40.587Z,94615.31
2023-03-08T08:45:10.135Z,94601.03
2023-03-08T08:47:38.296Z,94605.50
2023-03-08T08:50:06.958Z,94607.53
2023-03-08T08:52:35.142Z,94597.75
2023-03-08T08:55:05.036Z,94588.88
2023-03-08T08:57:33.238Z,94590.22
2023-03-08T09:00:01.337Z,94587.00
2023-03-08T09:02:29.449Z,94577.81
2023-03-08T09:04:57.963Z,94583.94
2023-03-08T09:07:26.361Z,94573.78
2023-03-08T09:09:56.066Z,94575.94
2023-03-08T09:12:25.431Z,94573.25
2023-03-08T09:14:53.598Z,94569.38
2023-03-08T09:17:21.614Z,94575.53
2023-03-08T09:19:49.854Z,94568.03
2023-03-08T09:22:18.439Z,94557.41
2023-03-08T09:24:49.856Z,94560.78
2023-03-08T09:27:18.107Z,94561.06
2023-03-08T09:29:47.536Z,94553.75
2023-03-08T09:32:15.652Z,94541.56
2023-03-08T09:34:43.821Z,94534.41
2023-03-08T09:37:12.808Z,94528.78
2023-03-08T09:39:41.064Z,94525.22
2023-03-08T09:42:20.856Z,94515.72
2023-03-08T09:45:30.124Z,94525.38
2023-03-08T09:48:07.592Z,94517.16
2023-03-08T09:50:49.389Z,94509.94
2023-03-08T09:53:29.073Z,94513.97
2023-03-08T09:56:04.670Z,94499.06
2023-03-08T09:58:38.744Z,94497.16
2023-03-08T10:01:25.234Z,94499.19
2023-03-08T10:04:40.743Z,94489.41
2023-03-08T10:07:22.379Z,94484.09
2023-03-08T10:10:02.982Z,94490.78
2023-03-08T10:12:49.846Z,94485.66
2023-03-08T10:15:22.998Z,94477.25
2023-03-08T10:17:58.526Z,94478.09
2023-03-08T10:20:29.929Z,94485.00
2023-03-08T10:23:01.940Z,94475.63
2023-03-08T10:25:33.975Z,94474.09
2023-03-08T10:28:10.661Z,94470.44
2023-03-08T10:30:46.061Z,94469.69
2023-03-08T10:33:19.386Z,94462.13
2023-03-08T10:36:02.068Z,94459.19
2023-03-08T10:38:32.862Z,94454.44
2023-03-08T10:41:07.328Z,94452.41
2023-03-08T10:43:40.568Z,94449.88
2023-03-08T10:46:15.849Z,94453.09
2023-03-08T10:48:45.834Z,94450.06
2023-03-08T10:51:20.103Z,94439.13
2023-03-08T10:53:56.070Z,94440.41
2023-03-08T10:56:34.383Z,94446.78
2023-03-08T10:59:04.134Z,94447.13
2023-03-08T11:01:34.969Z,94442.72
2023-03-08T11:04:07.603Z,94443.13
2023-03-08T11:06:36.268Z,94450.25
2023-03-08T11:09:20.004Z,94443.56
2023-03-08T11:11:48.333Z,94450.13
2023-03-08T11:14:16.885Z,94482.44
2023-03-08T11:17:13.257Z,94462.78
2023-03-08T11:20:00.239Z,94462.44
2023-03-08T11:22:53.208Z,94457.84
2023-03-08T11:25:41.086Z,94460.09
2023-03-08T11:28:33.136Z,94458.34
2023-03-08T11:31:15.655Z,94454.72
2023-03-08T11:34:08.345Z,94444.50
2023-03-08T11:36:45.897Z,94454.56
2023-03-08T11:39:22.349Z,94449.56
2023-03-08T11:41:59.315Z,94444.81
2023-03-08T11:44:45.583Z,94441.44
2023-03-08T11:47:53.878Z,94444.31
2023-03-08T11:50:25.395Z,94447.50
2023-03-08T11:53:10.514Z,94440.94
2023-03-08T11:55:55.706Z,94447.31
2023-03-08T11:58:31.443Z,94436.25
2023-03-08T12:01:03.185Z,94442.91
2023-03-08T12:03:37.940Z,94443.19
2023-03-08T12:06:26.339Z,94428.50
2023-03-08T12:09:05.729Z,94455.34
2023-03-08T12:11:42.129Z,94422.72
2023-03-08T12:14:19.188Z,94426.63
2023-03-08T12:16:52.406Z,94430.06
2023-03-08T12:19:35.226Z,94434.53
2023-03-08T12:22:20.204Z,94430.06
2023-03-08T12:24:58.831Z,94442.94
2023-03-08T12:27:32.162Z,94435.56
2023-03-08T12:30:06.520Z,94442.66
2023-03-08T12:32:39.671Z,94429.19
2023-03-08T12:35:26.628Z,94424.19
2023-03-08T12:38:00.880Z,94430.47
2023-03-08T12:40:44.231Z,94427.88
2023-03-08T12:43:15.605Z,94431.50
2023-03-08T12:45:45.618Z,94428.50
2023-03-08T12:48:25.434Z,94422.00
2023-03-08T12:51:05.471Z,94428.03
2023-03-08T12:53:39.349Z,94439.25
2023-03-08T12:56:27.979Z,94430.72
2023-03-08T12:59:00.205Z,94424.38
2023-03-08T13:01:39.606Z,94442.53
2023-03-08T13:04:40.058Z,94443.72
2023-03-08T13:07:30.369Z,94443.75
2023-03-08T13:10:07.495Z,94435.97
2023-03-08T13:13:01.401Z,94421.34
2023-03-08T13:15:29.607Z,94439.44
2023-03-08T13:18:06.107Z,94440.75
2023-03-08T13:21:03.757Z,94441.88
2023-03-08T13:23:39.294Z,94450.81
2023-03-08T13:26:50.764Z,94446.09
2023-03-08T13:29:22.424Z,94435.00
2023-03-08T13:31:51.406Z,94439.56
2023-03-08T13:34:29.615Z,94445.34
2023-03-08T13:36:58.315Z,94448.81
2023-03-08T13:39:29.031Z,94441.22
2023-03-08T13:42:09.100Z,94441.66
2023-03-08T13:44:38.811Z,94439.81
2023-03-08T13:47:24.525Z,94443.53
2023-03-08T13:49:55.752Z,94437.50
2023-03-08T13:52:30.054Z,94446.16
2023-03-08T13:55:01.070Z,94430.41
2023-03-08T13:57:33.497Z,94426.44
2023-03-08T14:00:25.215Z,94424.88
2023-03-08T14:02:53.862Z,94411.19
2023-03-08T14:05:26.653Z,94404.22
2023-03-08T14:08:00.234Z,94403.94
2023-03-08T14:10:36.925Z,94408.31
2023-03-08T14:13:06.767Z,94396.25
2023-03-08T14:15:40.027Z,94412.53
2023-03-08T14:18:16.833Z,94418.69
2023-03-08T14:20:44.901Z,94424.50
2023-03-08T14:23:24.675Z,94421.88
2023-03-08T14:25:57.871Z,94428.06
2023-03-08T14:28:41.398Z,94437.28
2023-03-08T14:31:28.345Z,94426.47
2023-03-08T14:34:00.288Z,94423.31
2023-03-08T14:36:34.027Z,94416.72
2023-03-08T14:39:02.195Z,94423.38
2023-03-08T14:41:33.551Z,94412.56
2023-03-08T14:44:03.114Z,94411.47
2023-03-08T14:46:32.956Z,94415.41
2023-03-08T14:49:04.393Z,94407.47
2023-03-08T14:51:41.679Z,94400.19
2023-03-08T14:54:32.792Z,94401.97
2023-03-08T14:57:14.184Z,94402.19
2023-03-08T14:59:42.953Z,94396.91
2023-03-08T15:02:18.268Z,94400.31
2023-03-08T15:04:47.210Z,94384.53
2023-03-08T15:07:20.727Z,94388.47
2023-03-08T15:09:50.041Z,94379.28
2023-03-08T15:12:18.902Z,94363.44
2023-03-08T15:14:47.053Z,94366.81
2023-03-08T15:17:16.429Z,94358.09
2023-03-08T15:19:44.562Z,94363.91
2023-03-08T15:22:14.495Z,94374.38
2023-03-08T15:24:42.584Z,94363.88
2023-03-08T15:27:16.095Z,94362.84
2023-03-08T15:29:44.313Z,94359.09
2023-03-08T15:32:12.366Z,94365.22
2023-03-08T15:34:41.896Z,94373.72
2023-03-08T15:37:14.903Z,94372.22
2023-03-08T15:39:42.996Z,94366.16
2023-03-08T15:42:12.370Z,94352.91
2023-03-08T15:44:40.443Z,94355.50
2023-03-08T15:47:11.051Z,94353.41
2023-03-08T15:49:39.103Z,94349.75
2023-03-08T15:52:08.982Z,94352.16
2023-03-08T15:54:37.169Z,94358.91
2023-03-08T15:57:05.439Z,94349.69
2023-03-08T15:59:33.542Z,94363.66
2023-03-08T16:02:02.369Z,94350.72
2023-03-08T16:04:30.693Z,94352.69
2023-03-08T16:06:58.761Z,94363.53
2023-03-08T16:09:28.095Z,94362.44
2023-03-08T16:11:56.193Z,94371.16
2023-03-08T16:14:24.230Z,94364.09
2023-03-08T16:16:52.339Z,94375.09
2023-03-08T16:19:20.383Z,94372.00
2023-03-08T16:21:51.950Z,94362.50
2023-03-08T16:24:20.041Z,94366.22
2023-03-08T16:26:49.535Z,94368.56
2023-03-08T16:29:17.765Z,94365.94
2023-03-08T16:31:46.009Z,94367.81
2023-03-08T16:34:14.280Z,94360.69
2023-03-08T16:36:42.378Z,94360.97
2023-03-08T16:39:11.731Z,94361.97
2023-03-08T16:41:41.457Z,94350.13
2023-03-08T16:44:23.643Z,94362.59
2023-03-08T16:46:52.624Z,94351.75
2023-03-08T16:49:26.027Z,94336.72
2023-03-08T16:51:54.084Z,94334.09
2023-03-08T16:54:22.425Z,94331.47
2023-03-08T16:56:50.830Z,94330.94
2023-03-08T16:59:20.197Z,94335.16
2023-03-08T17:01:49.877Z,94337.78
2023-03-08T17:04:19.362Z,94331.47
2023-03-08T17:06:47.692Z,94335.97
2023-03-08T17:09:15.967Z,94332.81
2023-03-08T17:11:45.486Z,94334.13
2023-03-08T17:14:16.559Z,94338.03
2023-03-08T17:16:46.089Z,94345.66
2023-03-08T17:19:14.365Z,94339.34
2023-03-08T17:21:42.461Z,94335.63
2023-03-08T17:24:14.969Z,94333.25
2023-03-08T17:26:45.413Z,94339.84
2023-03-08T17:29:14.099Z,94346.44
2023-03-08T17:31:42.674Z,94334.59
2023-03-08T17:34:12.848Z,94345.13
2023-03-08T17:36:41.137Z,94350.44
2023-03-08T17:39:09.653Z,94358.06
2023-03-08T17:41:38.502Z,94355.16
2023-03-08T17:44:06.991Z,94354.38
2023-03-08T17:46:35.239Z,94353.59
2023-03-08T17:49:03.457Z,94355.97
2023-03-08T17:51:35.469Z,94356.22
2023-03-08T17:54:04.165Z,94360.97
2023-03-08T17:56:35.477Z,94353.03
2023-03-08T17:59:03.689Z,94350.91
2023-03-08T18:01:33.035Z,94352.78
2023-03-08T18:04:01.646Z,94345.13
2023-03-08T18:06:34.282Z,94349.38
2023-03-08T18:09:05.985Z,94343.06
2023-03-08T18:11:37.410Z,94350.94
2023-03-08T18:14:06.227Z,94343.00
2023-03-08T18:16:35.076Z,94341.44
2023-03-08T18:19:04.755Z,94335.09
2023-03-08T18:21:36.498Z,94330.88
2023-03-08T18:24:05.003Z,94327.22
2023-03-08T18:26:33.574Z,94331.94
2023-03-08T18:29:05.000Z,94332.72
2023-03-08T18:31:35.077Z,94341.16
2023-03-08T18:34:03.390Z,94348.56
2023-03-08T18:36:33.090Z,94345.63
2023-03-08T18:39:01.189Z,94337.19
2023-03-08T18:41:31.138Z,94345.44
2023-03-08T18:44:01.076Z,94340.66
2023-03-08T18:46:31.325Z,94342.22
2023-03-08T18:49:02.002Z,94337.72
2023-03-08T18:51:31.758Z,94326.16
2023-03-08T18:54:02.470Z,94329.31
2023-03-08T18:56:31.825Z,94310.97
2023-03-08T18:59:02.783Z,94320.88
2023-03-08T19:01:32.224Z,94318.31
2023-03-08T19:04:03.991Z,94339.34
2023-03-08T19:06:32.139Z,94326.72
2023-03-08T19:09:07.727Z,94331.97
2023-03-08T19:11:35.932Z,94330.88
2023-03-08T19:14:04.006Z,94329.06
2023-03-08T19:16:35.617Z,94323.53
2023-03-08T19:19:07.102Z,94338.28
2023-03-08T19:21:37.726Z,94338.03
2023-03-08T19:24:07.526Z,94331.44
2023-03-08T19:26:38.274Z,94335.13
2023-03-08T19:29:13.248Z,94337.25
2023-03-08T19:31:46.853Z,94323.88
2023-03-08T19:34:16.641Z,94323.84
2023-03-08T19:36:47.112Z,94320.94
2023-03-08T19:39:21.394Z,94326.50
2023-03-08T19:41:51.800Z,94322.31
2023-03-08T19:44:20.743Z,94319.88
2023-03-08T19:46:48.794Z,94326.44
2023-03-08T19:49:20.551Z,94318.03
2023-03-08T19:51:50.748Z,94319.41
2023-03-08T19:54:21.004Z,94318.31
2023-03-08T19:56:49.491Z,94320.94
2023-03-08T19:59:18.330Z,94320.94
2023-03-08T20:01:47.183Z,94328.88
2023-03-08T20:04:15.422Z,94327.03
2023-03-08T20:06:46.634Z,94335.97
2023-03-08T20:09:21.212Z,94342.06
2023-03-08T20:11:53.182Z,94339.66
2023-03-08T20:14:21.901Z,94341.50
2023-03-08T20:16:50.112Z,94350.97
2023-03-08T20:19:18.913Z,94346.78
2023-03-08T20:21:48.083Z,94353.31
2023-03-08T20:24:18.238Z,94359.41
2023-03-08T20:26:47.827Z,94349.38
2023-03-08T20:29:18.347Z,94352.56
2023-03-08T20:31:48.089Z,94354.63
2023-03-08T20:34:16.538Z,94353.03
2023-03-08T20:36:44.823Z,94366.47
2023-03-08T20:39:13.379Z,94371.97
2023-03-08T20:41:41.558Z,94369.09
2023-03-08T20:44:12.362Z,94368.03
2023-03-08T20:46:41.696Z,94385.97
2023-03-08T20:49:12.326Z,94394.38
2023-03-08T20:51:40.538Z,94388.31
2023-03-08T20:54:08.659Z,94393.34
2023-03-08T20:56:36.727Z,94382.81
2023-03-08T20:59:05.220Z,94383.81
2023-03-08T21:01:34.602Z,94374.66
2023-03-08T21:04:05.822Z,94370.94
2023-03-08T21:06:33.896Z,94374.91
2023-03-08T21:09:02.540Z,94387.28
2023-03-08T21:11:31.131Z,94381.19
2023-03-08T21:13:59.208Z,94384.63
2023-03-08T21:16:29.059Z,94382.53
2023-03-08T21:18:59.333Z,94382.25
2023-03-08T21:21:32.897Z,94379.34
2023-03-08T21:24:04.611Z,94363.53
2023-03-08T21:26:33.968Z,94375.38
2023-03-08T21:29:04.913Z,94374.59
2023-03-08T21:31:35.458Z,94368.25
2023-03-08T21:34:04.719Z,94368.75
2023-03-08T21:36:35.191Z,94373.78
2023-03-08T21:39:04.011Z,94364.03
2023-03-08T21:41:34.485Z,94379.31
2023-03-08T21:44:04.761Z,94378.00
2023-03-08T21:46:33.323Z,94381.44
2023-03-08T21:49:01.442Z,94377.72
2023-03-08T21:51:29.494Z,94384.56
2023-03-08T21:53:59.502Z,94391.44
2023-03-08T21:56:27.611Z,94394.63
2023-03-08T21:58:56.900Z,94387.22
2023-03-08T22:01:33.972Z,94392.44
2023-03-08T22:04:03.297Z,94394.84
2023-03-08T22:06:31.879Z,94392.75
2023-03-08T22:09:01.780Z,94381.44
2023-03-08T22:11:29.865Z,94369.84
2023-03-08T22:14:01.306Z,94367.75
2023-03-08T22:16:31.505Z,94364.09
2023-03-08T22:19:01.953Z,94356.47
2023-03-08T22:21:30.491Z,94355.66
2023-03-08T22:24:02.494Z,94358.06
2023-03-08T22:26:32.007Z,94361.50
2023-03-08T22:29:00.561Z,94349.91
2023-03-08T22:31:30.985Z,94345.97
2023-03-08T22:33:59.350Z,94330.66
2023-03-08T22:36:27.447Z,94331.97
2023-03-08T22:38:55.465Z,94336.19
2023-03-08T22:41:27.684Z,94335.13
2023-03-08T22:43:56.002Z,94353.31
2023-03-08T22:46:26.898Z,94357.50
2023-03-08T22:48:58.112Z,94354.34
2023-03-08T22:51:28.421Z,94358.28
2023-03-08T22:53:59.018Z,94341.94
2023-03-08T22:56:30.540Z,94331.44
2023-03-08T22:58:59.004Z,94324.81
2023-03-08T23:01:29.606Z,94310.38
2023-03-08T23:03:59.654Z,94298.25
2023-03-08T23:06:30.139Z,94275.31
2023-03-08T23:09:00.533Z,94287.16
2023-03-08T23:11:30.456Z,94283.50
2023-03-08T23:13:58.520Z,94283.97
2023-03-08T23:16:27.529Z,94278.50
2023-03-08T23:18:56.270Z,94273.22
2023-03-08T23:21:29.255Z,94281.91
2023-03-08T23:23:57.744Z,94269.09
2023-03-08T23:26:28.321Z,94257.16
2023-03-08T23:29:00.509Z,94264.56
2023-03-08T23:31:31.829Z,94258.19
2023-03-08T23:34:01.536Z,94246.63
2023-03-08T23:36:32.429Z,94227.69
2023-03-08T23:39:03.617Z,94196.28
2023-03-08T23:41:33.191Z,94202.88
2023-03-08T23:44:03.876Z,94194.69
2023-03-08T23:46:33.090Z,94199.97
2023-03-08T23:49:02.288Z,94190.50
2023-03-08T23:51:32.871Z,94180.97
2023-03-08T23:54:02.761Z,94184.63
2023-03-08T23:56:37.696Z,94167.53
2023-03-08T23:59:12.267Z,94177.53
